Time;durP1;ratioP1;P1;durP2;ratioP2;P2;SDS_P1;SDS_P2;PMS_P1;PMS_P2;Temp;Humidity;BMP_temperature;BMP_pressure;BME280_temperature;BME280_humidity;BME280_pressure;Samples;Min_cycle;Max_cycle;Signal;HPM_P1;HPM_P2
2023/06/04 00:01:39;;;;;;;3.20;1.13;;;;;;;;;;5097808;28;20024;-64
2023/06/04 00:04:04;;;;;;;11.68;1.55;;;;;;;;;;5109587;28;20023;-64
2023/06/04 00:06:30;;;;;;;1.95;1.00;;;;;;;;;;5098074;28;20470;-63
2023/06/04 00:08:55;;;;;;;5.10;1.20;;;;;;;;;;5099884;28;20034;-64
2023/06/04 00:11:20;;;;;;;4.33;1.43;;;;;;;;;;5095838;28;20277;-64
2023/06/04 00:13:46;;;;;;;3.17;1.10;;;;;;;;;;5098128;28;20346;-64
2023/06/04 00:16:11;;;;;;;2.38;1.30;;;;;;;;;;5073427;28;20028;-64
2023/06/04 00:18:36;;;;;;;2.40;1.10;;;;;;;;;;5099519;28;20023;-64
2023/06/04 00:21:01;;;;;;;7.38;1.92;;;;;;;;;;5095576;28;20008;-63
2023/06/04 00:23:27;;;;;;;7.80;1.75;;;;;;;;;;5098721;28;20029;-64
2023/06/04 00:25:52;;;;;;;3.08;1.17;;;;;;;;;;5111271;28;20020;-64
2023/06/04 00:28:17;;;;;;;3.63;1.60;;;;;;;;;;5099618;28;20095;-63
2023/06/04 00:30:42;;;;;;;2.00;0.73;;;;;;;;;;5094394;28;20756;-63
2023/06/04 00:33:07;;;;;;;5.90;1.48;;;;;;;;;;5093919;28;20683;-64
2023/06/04 00:35:33;;;;;;;3.13;1.20;;;;;;;;;;5093515;28;20024;-63
2023/06/04 00:37:58;;;;;;;9.68;1.63;;;;;;;;;;5092888;28;20107;-63
2023/06/04 00:40:23;;;;;;;2.50;0.90;;;;;;;;;;5111425;28;20084;-64
2023/06/04 00:42:49;;;;;;;4.78;1.42;;;;;;;;;;5099167;28;20031;-64
2023/06/04 00:45:15;;;;;;;3.28;1.42;;;;;;;;;;5096592;28;20027;-64
2023/06/04 00:47:41;;;;;;;5.28;1.15;;;;;;;;;;5109835;28;20031;-63
2023/06/04 00:50:07;;;;;;;11.52;1.55;;;;;;;;;;5109846;28;20092;-63
2023/06/04 00:52:32;;;;;;;5.88;1.45;;;;;;;;;;5110017;28;20032;-63
2023/06/04 00:54:58;;;;;;;4.90;1.50;;;;;;;;;;5107063;28;20024;-63
2023/06/04 00:57:23;;;;;;;7.47;1.40;;;;;;;;;;5109565;28;20030;-64
2023/06/04 00:59:49;;;;;;;2.75;1.13;;;;;;;;;;5110873;28;20023;-63
2023/06/04 01:02:19;;;;;;;5.15;1.35;;;;;;;;;;5108836;28;20022;-63
2023/06/04 01:05:09;;;;;;;4.45;1.30;;;;;;;;;;5109187;28;20055;-64
2023/06/04 01:07:35;;;;;;;2.22;1.15;;;;;;;;;;5107087;28;20081;-63
2023/06/04 01:10:00;;;;;;;4.93;1.70;;;;;;;;;;5109202;28;20397;-63
2023/06/04 01:12:26;;;;;;;4.13;1.58;;;;;;;;;;5107234;28;20024;-64
2023/06/04 01:14:51;;;;;;;3.58;1.60;;;;;;;;;;5111048;28;20028;-63
2023/06/04 01:17:23;;;;;;;3.15;1.25;;;;;;;;;;5107772;28;20077;-63
2023/06/04 01:19:51;;;;;;;4.85;0.98;;;;;;;;;;5108368;28;20028;-64
2023/06/04 01:22:36;;;;;;;4.45;1.42;;;;;;;;;;5109013;28;20016;-64
2023/06/04 01:25:09;;;;;;;5.05;1.55;;;;;;;;;;5099821;28;20032;-64
2023/06/04 01:27:35;;;;;;;4.13;1.52;;;;;;;;;;5106021;28;20086;-64
2023/06/04 01:30:00;;;;;;;5.70;1.80;;;;;;;;;;5101453;28;20454;-64
2023/06/04 01:32:26;;;;;;;7.93;1.58;;;;;;;;;;5100318;28;20103;-64
2023/06/04 01:34:51;;;;;;;3.60;1.70;;;;;;;;;;5094118;28;20024;-64
2023/06/04 01:37:18;;;;;;;5.38;1.35;;;;;;;;;;5108127;28;20026;-64
2023/06/04 01:39:43;;;;;;;3.38;1.40;;;;;;;;;;5103033;28;20031;-63
2023/06/04 01:42:08;;;;;;;4.68;1.60;;;;;;;;;;5112808;28;20023;-63
2023/06/04 01:44:34;;;;;;;3.53;1.58;;;;;;;;;;5094715;28;20035;-63
2023/06/04 01:46:59;;;;;;;3.53;1.75;;;;;;;;;;5095787;28;20023;-63
2023/06/04 01:49:24;;;;;;;2.67;1.60;;;;;;;;;;5098913;28;20039;-63
2023/06/04 01:51:50;;;;;;;4.28;1.75;;;;;;;;;;5102290;28;20444;-63
2023/06/04 01:54:16;;;;;;;3.70;1.60;;;;;;;;;;5106861;28;20043;-63
2023/06/04 01:56:41;;;;;;;3.88;1.63;;;;;;;;;;5114090;28;20095;-63
2023/06/04 01:59:07;;;;;;;3.90;1.83;;;;;;;;;;5097938;28;20142;-63
2023/06/04 02:01:32;;;;;;;3.22;1.50;;;;;;;;;;5101828;28;20047;-63
2023/06/04 02:03:58;;;;;;;3.25;1.65;;;;;;;;;;5113195;28;20470;-63
2023/06/04 02:06:24;;;;;;;2.50;1.45;;;;;;;;;;5108534;28;20387;-63
2023/06/04 02:08:50;;;;;;;2.53;1.30;;;;;;;;;;5093429;28;20032;-63
2023/06/04 02:11:15;;;;;;;3.45;1.60;;;;;;;;;;5095353;28;20526;-63
2023/06/04 02:13:40;;;;;;;2.45;1.38;;;;;;;;;;5094142;28;20028;-63
2023/06/04 02:16:06;;;;;;;3.80;1.75;;;;;;;;;;5094134;28;20024;-63
2023/06/04 02:18:31;;;;;;;3.65;1.63;;;;;;;;;;5093181;28;20048;-64
2023/06/04 02:20:56;;;;;;;4.10;2.17;;;;;;;;;;5095707;28;20056;-63
2023/06/04 02:23:21;;;;;;;4.75;1.55;;;;;;;;;;5102503;28;20024;-63
2023/06/04 02:25:48;;;;;;;2.85;1.38;;;;;;;;;;5104716;28;20094;-63
2023/06/04 02:28:13;;;;;;;3.95;1.65;;;;;;;;;;5113072;28;20019;-64
2023/06/04 02:30:38;;;;;;;6.03;1.50;;;;;;;;;;5113015;28;20032;-63
2023/06/04 02:33:04;;;;;;;3.70;1.90;;;;;;;;;;5112953;28;20055;-63
2023/06/04 02:35:32;;;;;;;4.80;1.98;;;;;;;;;;5111765;28;20100;-63
2023/06/04 02:38:00;;;;;;;4.25;1.95;;;;;;;;;;5112220;28;20381;-63
2023/06/04 02:40:25;;;;;;;7.28;2.03;;;;;;;;;;5112671;28;20051;-63
2023/06/04 02:42:52;;;;;;;3.42;1.77;;;;;;;;;;5112679;28;20059;-63
2023/06/04 02:45:18;;;;;;;5.60;2.63;;;;;;;;;;5112622;28;20024;-63
2023/06/04 02:47:43;;;;;;;4.00;2.05;;;;;;;;;;5104344;28;20039;-63
2023/06/04 02:50:08;;;;;;;3.00;1.77;;;;;;;;;;5094349;28;20024;-63
2023/06/04 02:52:36;;;;;;;3.92;1.67;;;;;;;;;;5104894;28;20027;-63
2023/06/04 02:55:03;;;;;;;3.45;1.98;;;;;;;;;;5092837;28;20455;-63
2023/06/04 02:57:28;;;;;;;4.65;2.05;;;;;;;;;;5096652;28;20053;-63
2023/06/04 02:59:55;;;;;;;3.15;1.50;;;;;;;;;;5085353;28;20032;-63
2023/06/04 03:02:20;;;;;;;3.35;1.65;;;;;;;;;;5112748;28;20027;-63
2023/06/04 03:04:47;;;;;;;3.08;1.75;;;;;;;;;;5113042;28;20033;-63
2023/06/04 03:07:13;;;;;;;3.83;1.95;;;;;;;;;;5112540;28;20027;-63
2023/06/04 03:09:38;;;;;;;3.22;1.90;;;;;;;;;;5112832;28;20026;-63
2023/06/04 03:12:04;;;;;;;3.33;1.77;;;;;;;;;;5111459;28;20024;-63
2023/06/04 03:14:32;;;;;;;8.23;2.35;;;;;;;;;;5112788;28;20270;-63
2023/06/04 03:17:07;;;;;;;7.90;2.08;;;;;;;;;;5111210;28;20019;-63
2023/06/04 03:19:32;;;;;;;5.65;2.10;;;;;;;;;;5111996;28;20039;-63
2023/06/04 03:21:57;;;;;;;4.85;1.98;;;;;;;;;;5111050;28;20012;-63
2023/06/04 03:24:22;;;;;;;4.43;2.00;;;;;;;;;;5112020;28;20454;-63
2023/06/04 03:26:48;;;;;;;3.10;1.80;;;;;;;;;;5112302;28;20768;-63
2023/06/04 03:29:13;;;;;;;5.37;1.83;;;;;;;;;;5111344;28;20368;-63
2023/06/04 03:31:38;;;;;;;2.70;1.60;;;;;;;;;;5110054;28;20377;-63
2023/06/04 03:34:03;;;;;;;4.73;2.20;;;;;;;;;;5110670;28;20032;-64
2023/06/04 03:36:32;;;;;;;5.13;2.05;;;;;;;;;;5109981;28;20266;-63
2023/06/04 03:38:58;;;;;;;4.30;2.22;;;;;;;;;;5093102;28;20027;-63
2023/06/04 03:41:23;;;;;;;5.75;2.30;;;;;;;;;;5103542;28;20039;-63
2023/06/04 03:43:48;;;;;;;6.00;2.00;;;;;;;;;;5105354;28;20024;-63
2023/06/04 03:46:13;;;;;;;3.10;1.77;;;;;;;;;;5091848;28;20028;-63
2023/06/04 03:48:40;;;;;;;3.22;1.77;;;;;;;;;;5091684;28;20302;-63
2023/06/04 03:51:05;;;;;;;6.97;2.50;;;;;;;;;;5092201;28;20063;-64
2023/06/04 03:53:31;;;;;;;5.45;2.15;;;;;;;;;;5092519;28;20054;-63
2023/06/04 03:55:56;;;;;;;4.97;1.85;;;;;;;;;;5069205;28;20012;-63
2023/06/04 03:58:21;;;;;;;3.65;2.05;;;;;;;;;;5070148;28;20020;-63
2023/06/04 04:00:46;;;;;;;10.13;2.30;;;;;;;;;;5057128;28;20081;-63
2023/06/04 04:03:12;;;;;;;4.10;2.17;;;;;;;;;;5069647;28;20031;-63
2023/06/04 04:05:37;;;;;;;4.82;2.10;;;;;;;;;;5069586;28;20268;-63
2023/06/04 04:08:03;;;;;;;8.23;2.38;;;;;;;;;;5065519;28;20882;-63
2023/06/04 04:10:28;;;;;;;4.13;2.10;;;;;;;;;;5054978;28;20854;-63
2023/06/04 04:12:54;;;;;;;6.25;2.63;;;;;;;;;;5070267;28;20036;-63
2023/06/04 04:15:20;;;;;;;5.10;2.30;;;;;;;;;;5059197;28;20093;-63
2023/06/04 04:17:45;;;;;;;3.90;2.40;;;;;;;;;;5068044;28;20073;-63
2023/06/04 04:20:11;;;;;;;6.47;2.78;;;;;;;;;;5071696;28;20059;-63
2023/06/04 04:22:39;;;;;;;4.88;2.22;;;;;;;;;;5109051;28;20458;-63
2023/06/04 04:25:05;;;;;;;4.28;2.50;;;;;;;;;;5111236;28;20023;-62
2023/06/04 04:27:31;;;;;;;3.70;2.03;;;;;;;;;;5110247;28;20028;-63
2023/06/04 04:29:59;;;;;;;4.03;2.38;;;;;;;;;;5110658;28;20051;-64
2023/06/04 04:32:25;;;;;;;5.63;2.83;;;;;;;;;;5109623;28;20375;-64
2023/06/04 04:34:54;;;;;;;4.30;2.10;;;;;;;;;;5092456;28;20042;-63
2023/06/04 04:37:21;;;;;;;3.42;1.95;;;;;;;;;;5109741;28;20034;-63
2023/06/04 04:39:47;;;;;;;4.05;2.10;;;;;;;;;;5102546;28;20489;-64
2023/06/04 04:42:12;;;;;;;5.90;2.40;;;;;;;;;;5102095;28;20015;-64
2023/06/04 04:44:37;;;;;;;5.30;2.47;;;;;;;;;;5099843;28;20028;-64
2023/06/04 04:47:02;;;;;;;6.78;2.83;;;;;;;;;;5107468;28;20804;-63
2023/06/04 04:49:28;;;;;;;6.70;2.38;;;;;;;;;;5099208;28;20023;-63
2023/06/04 04:51:53;;;;;;;6.97;2.05;;;;;;;;;;5104289;28;20123;-64
2023/06/04 04:54:18;;;;;;;4.78;2.30;;;;;;;;;;5093895;28;20069;-64
2023/06/04 04:56:44;;;;;;;4.78;2.15;;;;;;;;;;5105392;28;20031;-64
2023/06/04 04:59:09;;;;;;;5.25;2.60;;;;;;;;;;5094733;28;20027;-64
2023/06/04 05:01:34;;;;;;;6.28;2.53;;;;;;;;;;5095153;28;20063;-63
2023/06/04 05:04:00;;;;;;;7.22;2.38;;;;;;;;;;5098968;28;20098;-64
2023/06/04 05:06:25;;;;;;;4.32;2.13;;;;;;;;;;5102848;28;20466;-63
2023/06/04 05:08:50;;;;;;;4.90;2.50;;;;;;;;;;5101187;28;20020;-63
2023/06/04 05:11:15;;;;;;;3.40;2.10;;;;;;;;;;5099550;28;20043;-63
2023/06/04 05:13:44;;;;;;;3.65;1.92;;;;;;;;;;5093389;28;20351;-63
2023/06/04 05:16:11;;;;;;;3.60;2.00;;;;;;;;;;5093864;28;20059;-63
2023/06/04 05:18:44;;;;;;;4.32;2.63;;;;;;;;;;5098966;28;20130;-63
2023/06/04 05:21:11;;;;;;;4.85;2.65;;;;;;;;;;5095757;28;20046;-63
2023/06/04 05:23:37;;;;;;;3.53;2.08;;;;;;;;;;5100645;28;20059;-64
2023/06/04 05:26:03;;;;;;;4.40;2.67;;;;;;;;;;5095418;28;20043;-64
2023/06/04 05:28:28;;;;;;;5.93;2.33;;;;;;;;;;5090183;28;20055;-63
2023/06/04 05:30:59;;;;;;;5.10;2.70;;;;;;;;;;5091375;28;20064;-63
2023/06/04 05:33:25;;;;;;;8.13;2.50;;;;;;;;;;5091135;28;20028;-63
2023/06/04 05:35:58;;;;;;;5.90;2.55;;;;;;;;;;5090593;28;20384;-64
2023/06/04 05:38:27;;;;;;;5.80;2.78;;;;;;;;;;5090884;28;20031;-64
2023/06/04 05:40:55;;;;;;;3.90;2.40;;;;;;;;;;5109102;28;20681;-64
2023/06/04 05:43:21;;;;;;;6.20;2.67;;;;;;;;;;5110576;28;20032;-63
2023/06/04 05:45:46;;;;;;;5.40;2.97;;;;;;;;;;5103214;28;20145;-63
2023/06/04 05:48:11;;;;;;;4.05;2.50;;;;;;;;;;5091565;28;20020;-63
2023/06/04 05:50:37;;;;;;;5.03;2.45;;;;;;;;;;5103774;28;20115;-64
2023/06/04 05:53:02;;;;;;;5.05;2.60;;;;;;;;;;5105901;28;20470;-64
2023/06/04 05:55:29;;;;;;;5.25;2.63;;;;;;;;;;5103715;28;20028;-64
2023/06/04 05:57:54;;;;;;;10.05;2.53;;;;;;;;;;5098879;28;20028;-64
2023/06/04 06:00:20;;;;;;;5.13;2.28;;;;;;;;;;5089606;28;20078;-63
2023/06/04 06:02:48;;;;;;;5.15;3.08;;;;;;;;;;5090857;28;20036;-64
2023/06/04 06:05:14;;;;;;;5.10;3.22;;;;;;;;;;5105181;28;20039;-63
2023/06/04 06:07:39;;;;;;;4.97;2.95;;;;;;;;;;5105061;28;20032;-63
2023/06/04 06:10:04;;;;;;;5.22;2.55;;;;;;;;;;5107644;28;20340;-63
2023/06/04 06:12:30;;;;;;;3.83;2.33;;;;;;;;;;5110953;28;20016;-63
2023/06/04 06:14:56;;;;;;;7.57;3.03;;;;;;;;;;5106971;28;20057;-63
2023/06/04 06:17:21;;;;;;;3.65;2.35;;;;;;;;;;5110706;28;20020;-63
2023/06/04 06:19:46;;;;;;;5.60;2.83;;;;;;;;;;5111092;28;20028;-63
2023/06/04 06:22:12;;;;;;;6.82;2.72;;;;;;;;;;5109622;28;20118;-63
2023/06/04 06:24:37;;;;;;;7.55;2.97;;;;;;;;;;5069167;28;20849;-63
2023/06/04 06:27:03;;;;;;;7.15;2.70;;;;;;;;;;5075333;28;20020;-63
2023/06/04 06:29:28;;;;;;;6.68;2.40;;;;;;;;;;5101582;28;20104;-62
2023/06/04 06:31:53;;;;;;;3.88;2.40;;;;;;;;;;5101133;28;20078;-63
2023/06/04 06:34:18;;;;;;;3.78;2.53;;;;;;;;;;5106744;28;20051;-63
2023/06/04 06:36:44;;;;;;;6.53;2.80;;;;;;;;;;5096812;28;20032;-63
2023/06/04 06:39:10;;;;;;;6.00;2.97;;;;;;;;;;5099480;28;20031;-63
2023/06/04 06:41:35;;;;;;;6.28;3.13;;;;;;;;;;5113411;28;20415;-63
2023/06/04 06:44:00;;;;;;;4.60;2.70;;;;;;;;;;5113042;28;20114;-62
2023/06/04 06:46:26;;;;;;;4.25;2.58;;;;;;;;;;5112892;28;20047;-63
2023/06/04 06:48:51;;;;;;;4.25;1.92;;;;;;;;;;5096741;28;20062;-63
2023/06/04 06:51:16;;;;;;;9.60;2.33;;;;;;;;;;5092518;28;20020;-63
2023/06/04 06:53:42;;;;;;;5.28;2.60;;;;;;;;;;5109103;28;20231;-63
2023/06/04 06:56:08;;;;;;;3.83;2.20;;;;;;;;;;5113393;28;20067;-63
2023/06/04 06:58:33;;;;;;;4.83;2.53;;;;;;;;;;5098857;28;20076;-63
2023/06/04 07:00:58;;;;;;;6.60;2.80;;;;;;;;;;5093027;28;20353;-63
2023/06/04 07:03:24;;;;;;;4.53;2.20;;;;;;;;;;5092928;28;20044;-63
2023/06/04 07:05:49;;;;;;;5.00;3.10;;;;;;;;;;5092541;28;20093;-63
2023/06/04 07:08:14;;;;;;;5.68;2.75;;;;;;;;;;5091781;28;20282;-64
2023/06/04 07:10:40;;;;;;;4.18;2.58;;;;;;;;;;5097950;28;20023;-63
2023/06/04 07:13:05;;;;;;;5.07;2.25;;;;;;;;;;5113087;28;20596;-63
2023/06/04 07:15:30;;;;;;;10.25;2.17;;;;;;;;;;5111681;28;20023;-63
2023/06/04 07:17:56;;;;;;;7.82;2.40;;;;;;;;;;5112557;28;20073;-63
2023/06/04 07:20:21;;;;;;;4.97;2.20;;;;;;;;;;5111992;28;20029;-63
2023/06/04 07:22:47;;;;;;;6.07;2.42;;;;;;;;;;5111668;28;20032;-63
2023/06/04 07:25:12;;;;;;;6.47;2.55;;;;;;;;;;5111943;28;20058;-63
2023/06/04 07:27:37;;;;;;;3.78;2.28;;;;;;;;;;5112490;28;20126;-63
2023/06/04 07:30:03;;;;;;;5.47;2.58;;;;;;;;;;5112683;28;20515;-63
2023/06/04 07:32:28;;;;;;;4.60;2.65;;;;;;;;;;5099824;28;20020;-63
2023/06/04 07:34:53;;;;;;;6.17;2.57;;;;;;;;;;5111364;28;20020;-63
2023/06/04 07:37:18;;;;;;;7.87;2.50;;;;;;;;;;5112209;28;20318;-63
2023/06/04 07:39:43;;;;;;;4.30;2.30;;;;;;;;;;5110563;28;20916;-63
2023/06/04 07:42:09;;;;;;;4.18;2.53;;;;;;;;;;5111236;28;20273;-63
2023/06/04 07:44:35;;;;;;;4.93;2.67;;;;;;;;;;5112087;28;20029;-63
2023/06/04 07:47:00;;;;;;;6.50;2.67;;;;;;;;;;5103420;28;20499;-63
2023/06/04 07:49:25;;;;;;;10.32;2.78;;;;;;;;;;5095848;28;20035;-63
2023/06/04 07:51:51;;;;;;;3.27;2.17;;;;;;;;;;5099879;28;20110;-63
2023/06/04 07:54:16;;;;;;;9.95;3.05;;;;;;;;;;5099108;28;20270;-63
2023/06/04 07:56:41;;;;;;;5.00;2.55;;;;;;;;;;5098955;28;20034;-63
2023/06/04 07:59:07;;;;;;;3.78;2.20;;;;;;;;;;5096419;28;20060;-63
2023/06/04 08:01:32;;;;;;;4.77;2.57;;;;;;;;;;5107669;28;20019;-64
2023/06/04 08:03:58;;;;;;;8.02;2.45;;;;;;;;;;5109374;28;20265;-64
2023/06/04 08:06:24;;;;;;;4.95;2.30;;;;;;;;;;5100300;28;20099;-64
2023/06/04 08:08:50;;;;;;;7.03;2.58;;;;;;;;;;5109084;28;20119;-64
2023/06/04 08:11:15;;;;;;;6.10;3.00;;;;;;;;;;5112051;28;20035;-64
2023/06/04 08:13:41;;;;;;;6.05;2.58;;;;;;;;;;5099130;28;20024;-64
2023/06/04 08:16:06;;;;;;;9.02;2.17;;;;;;;;;;5107064;28;20027;-63
2023/06/04 08:18:31;;;;;;;4.50;2.15;;;;;;;;;;5108319;28;20015;-64
2023/06/04 08:20:57;;;;;;;3.23;2.10;;;;;;;;;;5110839;28;20091;-64
2023/06/04 08:23:22;;;;;;;6.85;2.35;;;;;;;;;;5105971;28;20344;-65
2023/06/04 08:25:47;;;;;;;4.50;2.53;;;;;;;;;;5108264;28;20057;-63
2023/06/04 08:28:13;;;;;;;4.67;2.43;;;;;;;;;;5076787;28;20011;-64
2023/06/04 08:30:38;;;;;;;4.40;2.40;;;;;;;;;;5100904;28;20297;-63
2023/06/04 08:33:04;;;;;;;6.30;2.50;;;;;;;;;;5105371;28;20022;-64
2023/06/04 08:35:30;;;;;;;4.45;2.28;;;;;;;;;;5108869;28;20050;-64
2023/06/04 08:37:55;;;;;;;4.82;2.40;;;;;;;;;;5106967;28;20093;-63
2023/06/04 08:40:22;;;;;;;3.60;2.38;;;;;;;;;;5109698;28;20027;-63
2023/06/04 08:42:47;;;;;;;5.47;2.58;;;;;;;;;;5104222;28;20039;-64
2023/06/04 08:45:15;;;;;;;4.78;2.70;;;;;;;;;;5091140;28;20047;-64
2023/06/04 08:47:43;;;;;;;4.28;2.60;;;;;;;;;;5097904;28;20389;-63
2023/06/04 08:50:09;;;;;;;6.25;2.38;;;;;;;;;;5105312;28;20390;-62
2023/06/04 08:52:35;;;;;;;7.35;2.60;;;;;;;;;;5110943;28;20505;-64
2023/06/04 08:55:01;;;;;;;7.47;2.78;;;;;;;;;;5110898;28;20063;-64
2023/06/04 08:57:26;;;;;;;4.82;2.40;;;;;;;;;;5103731;28;20059;-63
2023/06/04 08:59:52;;;;;;;8.70;2.58;;;;;;;;;;5091251;28;20103;-64
2023/06/04 09:02:17;;;;;;;8.15;2.17;;;;;;;;;;5107581;28;20011;-64
2023/06/04 09:04:43;;;;;;;5.35;2.35;;;;;;;;;;5111440;28;20028;-64
2023/06/04 09:07:10;;;;;;;5.85;2.60;;;;;;;;;;5110406;28;20023;-64
2023/06/04 09:09:38;;;;;;;6.43;2.72;;;;;;;;;;5110789;28;20034;-63
2023/06/04 09:12:04;;;;;;;5.65;2.72;;;;;;;;;;5102807;28;20028;-64
2023/06/04 09:14:29;;;;;;;4.53;2.38;;;;;;;;;;5106865;28;20035;-64
2023/06/04 09:16:58;;;;;;;3.70;2.30;;;;;;;;;;5109384;28;20027;-63
2023/06/04 09:19:23;;;;;;;4.10;2.10;;;;;;;;;;5094115;28;20679;-64
2023/06/04 09:21:53;;;;;;;4.38;2.38;;;;;;;;;;5105923;28;20028;-64
2023/06/04 09:24:19;;;;;;;5.40;2.03;;;;;;;;;;5092039;28;20032;-63
2023/06/04 09:26:44;;;;;;;5.10;2.30;;;;;;;;;;5099851;28;20027;-64
2023/06/04 09:29:10;;;;;;;3.83;2.00;;;;;;;;;;5102935;28;20114;-64
2023/06/04 09:31:37;;;;;;;2.85;1.92;;;;;;;;;;5104616;28;20035;-64
2023/06/04 09:34:02;;;;;;;6.80;2.80;;;;;;;;;;5101520;28;20016;-64
2023/06/04 09:36:31;;;;;;;7.32;2.20;;;;;;;;;;5103442;28;20024;-64
2023/06/04 09:38:56;;;;;;;6.25;2.67;;;;;;;;;;5104253;28;20036;-63
2023/06/04 09:41:22;;;;;;;5.72;2.33;;;;;;;;;;5103095;28;20027;-64
2023/06/04 09:43:47;;;;;;;6.22;2.58;;;;;;;;;;5099629;28;20466;-64
2023/06/04 09:46:13;;;;;;;7.63;2.38;;;;;;;;;;5095950;28;20024;-64
2023/06/04 09:48:39;;;;;;;5.70;2.53;;;;;;;;;;5097176;28;20016;-64
2023/06/04 09:51:12;;;;;;;4.57;2.25;;;;;;;;;;5099324;28;20038;-64
2023/06/04 09:53:38;;;;;;;4.70;2.15;;;;;;;;;;5096378;28;20051;-62
2023/06/04 09:56:04;;;;;;;4.53;1.90;;;;;;;;;;5067311;28;20760;-64
2023/06/04 09:58:29;;;;;;;5.80;2.38;;;;;;;;;;5089451;28;20015;-64
2023/06/04 10:00:56;;;;;;;5.72;2.38;;;;;;;;;;5108750;28;20043;-64
2023/06/04 10:03:25;;;;;;;5.75;1.92;;;;;;;;;;5086289;28;20040;-64
2023/06/04 10:05:52;;;;;;;4.88;2.10;;;;;;;;;;5067186;28;20030;-64
2023/06/04 10:08:17;;;;;;;4.53;2.72;;;;;;;;;;5060905;28;20077;-63
2023/06/04 10:10:43;;;;;;;5.90;2.42;;;;;;;;;;5067863;28;20039;-63
2023/06/04 10:13:16;;;;;;;7.70;2.30;;;;;;;;;;5062769;28;20043;-64
2023/06/04 10:15:43;;;;;;;3.85;1.95;;;;;;;;;;5070343;28;20052;-62
2023/06/04 10:18:09;;;;;;;5.03;2.22;;;;;;;;;;5043930;28;20311;-63
2023/06/04 10:20:35;;;;;;;4.53;2.25;;;;;;;;;;5069970;28;20023;-63
2023/06/04 10:23:00;;;;;;;5.15;2.42;;;;;;;;;;5072755;28;20015;-64
2023/06/04 10:25:26;;;;;;;5.30;2.60;;;;;;;;;;5065419;28;20816;-63
2023/06/04 10:27:51;;;;;;;3.70;2.33;;;;;;;;;;5075666;28;20115;-62
2023/06/04 10:30:17;;;;;;;5.40;2.30;;;;;;;;;;5093531;28;20429;-62
2023/06/04 10:32:42;;;;;;;9.87;1.90;;;;;;;;;;5099798;28;20019;-63
2023/06/04 10:35:08;;;;;;;6.22;2.13;;;;;;;;;;5096457;28;20288;-64
2023/06/04 10:37:33;;;;;;;4.32;2.20;;;;;;;;;;5110223;28;20115;-63
2023/06/04 10:39:58;;;;;;;4.22;1.73;;;;;;;;;;5102959;28;20016;-63
2023/06/04 10:42:24;;;;;;;5.70;1.88;;;;;;;;;;5111971;28;20032;-64
2023/06/04 10:44:53;;;;;;;8.20;2.13;;;;;;;;;;5101162;28;20378;-64
2023/06/04 10:47:22;;;;;;;3.92;1.80;;;;;;;;;;5099381;28;20020;-63
2023/06/04 10:49:49;;;;;;;3.53;1.75;;;;;;;;;;5094414;28;20480;-63
2023/06/04 10:52:14;;;;;;;6.60;2.10;;;;;;;;;;5107219;28;20359;-64
2023/06/04 10:54:40;;;;;;;3.72;2.15;;;;;;;;;;5093956;28;20030;-61
2023/06/04 10:57:16;;;;;;;3.90;1.60;;;;;;;;;;5093255;28;20031;-62
2023/06/04 10:59:41;;;;;;;4.25;2.28;;;;;;;;;;5100328;28;20039;-62
2023/06/04 11:02:08;;;;;;;7.83;2.23;;;;;;;;;;5110735;28;20516;-62
2023/06/04 11:04:33;;;;;;;4.82;1.98;;;;;;;;;;5093224;28;20285;-62
2023/06/04 11:07:03;;;;;;;3.17;1.80;;;;;;;;;;5094541;28;20028;-63
2023/06/04 11:09:28;;;;;;;7.07;2.20;;;;;;;;;;5103469;28;20051;-63
2023/06/04 11:12:00;;;;;;;10.10;2.38;;;;;;;;;;5102706;28;20047;-62
2023/06/04 11:14:25;;;;;;;5.25;1.80;;;;;;;;;;5062634;28;20023;-64
2023/06/04 11:16:50;;;;;;;5.93;2.40;;;;;;;;;;5087909;28;20381;-63
2023/06/04 11:19:16;;;;;;;4.40;2.00;;;;;;;;;;5107385;28;20082;-63
2023/06/04 11:21:41;;;;;;;6.37;2.47;;;;;;;;;;5109793;28;20274;-61
2023/06/04 11:24:06;;;;;;;4.78;2.67;;;;;;;;;;5109788;28;20265;-61
2023/06/04 11:26:33;;;;;;;3.83;1.80;;;;;;;;;;5102183;28;20020;-63
2023/06/04 11:28:58;;;;;;;5.15;1.83;;;;;;;;;;5104832;28;20371;-63
2023/06/04 11:31:23;;;;;;;3.30;2.03;;;;;;;;;;5109123;28;20043;-63
2023/06/04 11:33:49;;;;;;;5.38;2.63;;;;;;;;;;5102033;28;20028;-62
2023/06/04 11:36:25;;;;;;;3.38;1.85;;;;;;;;;;5112725;28;20441;-62
2023/06/04 11:39:00;;;;;;;6.35;1.95;;;;;;;;;;5102233;28;20067;-62
2023/06/04 11:41:29;;;;;;;12.15;2.28;;;;;;;;;;5093989;28;20020;-61
2023/06/04 11:44:01;;;;;;;4.90;2.72;;;;;;;;;;5101593;28;20032;-63
2023/06/04 11:46:27;;;;;;;5.40;2.83;;;;;;;;;;5102246;28;20024;-63
2023/06/04 11:48:53;;;;;;;5.43;2.53;;;;;;;;;;5108577;28;20019;-63
2023/06/04 11:51:19;;;;;;;5.32;2.80;;;;;;;;;;5108425;28;20032;-62
2023/06/04 11:53:45;;;;;;;5.57;2.50;;;;;;;;;;5105755;28;20076;-63
2023/06/04 11:56:11;;;;;;;4.22;2.28;;;;;;;;;;5105216;28;20044;-63
2023/06/04 11:58:36;;;;;;;9.07;2.55;;;;;;;;;;5097300;28;20027;-63
2023/06/04 12:01:02;;;;;;;4.07;2.50;;;;;;;;;;5096215;28;20067;-63
2023/06/04 12:03:36;;;;;;;4.63;2.67;;;;;;;;;;5102479;28;20024;-62
2023/06/04 12:06:15;;;;;;;5.05;2.67;;;;;;;;;;5089591;28;20019;-62
2023/06/04 12:08:47;;;;;;;5.47;2.70;;;;;;;;;;5109556;28;20025;-63
2023/06/04 12:11:30;;;;;;;6.28;2.35;;;;;;;;;;5097679;28;20023;-63
2023/06/04 12:13:56;;;;;;;5.43;2.20;;;;;;;;;;5101604;28;20524;-63
2023/06/04 12:16:22;;;;;;;6.43;2.45;;;;;;;;;;5104849;28;20095;-63
2023/06/04 12:18:48;;;;;;;6.57;2.42;;;;;;;;;;5099873;28;20015;-63
2023/06/04 12:21:26;;;;;;;6.70;2.25;;;;;;;;;;5103709;28;20015;-63
2023/06/04 12:24:05;;;;;;;4.47;2.35;;;;;;;;;;5099773;28;20043;-63
2023/06/04 12:26:32;;;;;;;4.95;2.67;;;;;;;;;;5102963;28;20641;-62
2023/06/04 12:28:58;;;;;;;11.07;3.00;;;;;;;;;;5096901;28;20039;-62
2023/06/04 12:31:23;;;;;;;5.60;2.75;;;;;;;;;;5098847;28;20020;-60
2023/06/04 12:33:48;;;;;;;5.60;2.77;;;;;;;;;;5105608;28;20452;-62
2023/06/04 12:36:14;;;;;;;4.93;2.65;;;;;;;;;;5099640;28;20016;-62
2023/06/04 12:38:39;;;;;;;5.13;2.15;;;;;;;;;;5095520;28;20516;-61
2023/06/04 12:41:05;;;;;;;9.10;2.60;;;;;;;;;;5110724;28;20020;-61
2023/06/04 12:43:33;;;;;;;6.57;2.20;;;;;;;;;;5095988;28;20282;-62
2023/06/04 12:45:58;;;;;;;8.65;2.63;;;;;;;;;;5099090;28;20012;-62
2023/06/04 12:48:24;;;;;;;4.43;2.70;;;;;;;;;;5094933;28;20055;-61
2023/06/04 12:50:49;;;;;;;6.32;2.60;;;;;;;;;;5097390;28;20372;-62
2023/06/04 12:53:14;;;;;;;4.03;2.00;;;;;;;;;;5095985;28;20077;-62
2023/06/04 12:55:42;;;;;;;4.77;2.00;;;;;;;;;;5107174;28;20066;-61
2023/06/04 12:58:08;;;;;;;6.53;2.00;;;;;;;;;;5091955;28;20020;-61
2023/06/04 13:00:33;;;;;;;5.47;1.90;;;;;;;;;;5106582;28;20866;-62
2023/06/04 13:02:59;;;;;;;7.72;2.17;;;;;;;;;;5101514;28;20020;-62
2023/06/04 13:05:24;;;;;;;4.57;2.47;;;;;;;;;;5092123;28;20055;-62
2023/06/04 13:07:51;;;;;;;6.00;2.40;;;;;;;;;;5091698;28;20055;-61
2023/06/04 13:10:16;;;;;;;4.72;1.70;;;;;;;;;;5093058;28;20034;-62
2023/06/04 13:12:42;;;;;;;7.75;2.30;;;;;;;;;;5091322;28;20405;-62
2023/06/04 13:15:07;;;;;;;5.68;1.83;;;;;;;;;;5104674;28;20365;-61
2023/06/04 13:17:33;;;;;;;9.40;1.70;;;;;;;;;;5092674;28;20031;-63
2023/06/04 13:19:58;;;;;;;4.93;2.13;;;;;;;;;;5113314;28;20024;-61
2023/06/04 13:22:24;;;;;;;3.87;1.60;;;;;;;;;;5104543;28;20015;-62
2023/06/04 13:24:49;;;;;;;6.07;2.40;;;;;;;;;;5112036;28;20028;-63
2023/06/04 13:27:14;;;;;;;3.70;1.80;;;;;;;;;;5113811;28;20041;-62
2023/06/04 13:29:40;;;;;;;3.92;2.05;;;;;;;;;;5103925;28;20028;-63
2023/06/04 13:32:05;;;;;;;5.30;2.05;;;;;;;;;;5105536;28;20024;-62
2023/06/04 13:34:31;;;;;;;4.57;1.65;;;;;;;;;;5101142;28;20028;-62
2023/06/04 13:36:57;;;;;;;2.95;1.50;;;;;;;;;;5102004;28;20115;-62
2023/06/04 13:39:22;;;;;;;10.00;2.25;;;;;;;;;;5099717;28;20561;-62
2023/06/04 13:41:47;;;;;;;6.47;2.33;;;;;;;;;;5113578;28;20462;-61
2023/06/04 13:44:12;;;;;;;4.00;1.50;;;;;;;;;;5109087;28;20273;-62
2023/06/04 13:46:38;;;;;;;3.43;1.93;;;;;;;;;;5093867;28;20326;-63
2023/06/04 13:49:03;;;;;;;3.20;1.80;;;;;;;;;;5110382;28;20058;-62
2023/06/04 13:51:30;;;;;;;2.30;1.48;;;;;;;;;;5106444;28;20027;-61
2023/06/04 13:53:55;;;;;;;12.25;2.20;;;;;;;;;;5108028;28;20015;-61
2023/06/04 13:56:20;;;;;;;4.97;1.67;;;;;;;;;;5102079;28;20016;-62
2023/06/04 13:58:45;;;;;;;4.03;1.67;;;;;;;;;;5098388;28;20269;-61
2023/06/04 14:01:11;;;;;;;5.03;1.47;;;;;;;;;;5101811;28;20293;-61
2023/06/04 14:03:36;;;;;;;4.33;2.00;;;;;;;;;;5102489;28;20482;-62
2023/06/04 14:06:01;;;;;;;6.17;2.00;;;;;;;;;;5100716;28;20274;-65
2023/06/04 14:08:28;;;;;;;3.03;1.80;;;;;;;;;;5106724;28;20357;-62
2023/06/04 14:10:54;;;;;;;5.82;2.25;;;;;;;;;;5106075;28;20324;-63
2023/06/04 14:13:20;;;;;;;3.38;1.70;;;;;;;;;;5106385;28;20605;-62
2023/06/04 14:15:45;;;;;;;4.78;1.92;;;;;;;;;;5096502;28;20032;-62
2023/06/04 14:18:10;;;;;;;4.40;1.92;;;;;;;;;;5101895;28;20027;-61
2023/06/04 14:20:36;;;;;;;3.83;2.13;;;;;;;;;;5107093;28;20470;-61
2023/06/04 14:23:01;;;;;;;4.47;2.17;;;;;;;;;;5110078;28;20253;-62
2023/06/04 14:25:27;;;;;;;2.87;2.00;;;;;;;;;;5105198;28;20019;-63
2023/06/04 14:27:52;;;;;;;4.05;2.40;;;;;;;;;;5103347;28;20627;-62
2023/06/04 14:30:18;;;;;;;6.18;2.38;;;;;;;;;;5110406;28;20080;-62
2023/06/04 14:32:43;;;;;;;8.98;2.67;;;;;;;;;;5098671;28;20383;-61
2023/06/04 14:35:08;;;;;;;5.80;2.35;;;;;;;;;;5102591;28;20389;-62
2023/06/04 14:37:34;;;;;;;3.92;2.22;;;;;;;;;;5098274;28;20031;-62